Time;durP1;ratioP1;P1;durP2;ratioP2;P2;SDS_P1;SDS_P2;PMS_P1;PMS_P2;Temp;Humidity;BMP_temperature;BMP_pressure;BME280_temperature;BME280_humidity;BME280_pressure;Samples;Min_cycle;Max_cycle;Signal;HPM_P1;HPM_P2
2022/02/26 00:01:13;;;;;;;7.80;4.45;;;179.90;1945.60;;;;;;5043774;28;20350;-80
2022/02/26 00:03:39;;;;;;;;;;;179.90;1971.20;;;;;;5042795;28;20131;-80
2022/02/26 00:06:05;;;;;;;10.52;5.93;;;179.90;1971.20;;;;;;5045388;28;19905;-79
2022/02/26 00:08:30;;;;;;;;;;;179.80;1996.80;;;;;;5043381;28;20026;-92
2022/02/26 00:10:56;;;;;;;10.40;4.50;;;179.80;2022.40;;;;;;5043683;28;19913;-92
2022/02/26 00:13:22;;;;;;;;;;;179.80;2048.00;;;;;;5046668;28;20120;-90
2022/02/26 00:15:48;;;;;;;8.80;4.47;;;179.80;2048.00;;;;;;5042981;28;19940;-84
2022/02/26 00:18:13;;;;;;;;;;;179.90;2048.00;;;;;;5045529;28;20441;-79
2022/02/26 00:20:39;;;;;;;10.43;4.28;;;179.80;2048.00;;;;;;5045504;28;19905;-79
2022/02/26 00:23:05;;;;;;;11.23;5.20;;;179.70;2073.60;;;;;;5044515;28;20092;-92
2022/02/26 00:25:32;;;;;;;;;;;179.80;2073.60;;;;;;5045378;28;20296;-93
2022/02/26 00:27:58;;;;;;;6.55;4.13;;;179.80;2073.60;;;;;;5043575;28;19905;-92
2022/02/26 00:30:24;;;;;;;;;;;179.80;2099.20;;;;;;5043745;28;20031;-92
2022/02/26 00:32:50;;;;;;;10.55;4.57;;;179.80;2073.60;;;;;;5045036;28;19911;-92
2022/02/26 00:35:15;;;;;;;;;;;179.80;2099.20;;;;;;5043768;28;20110;-80
2022/02/26 00:37:41;;;;;;;10.88;4.72;;;179.90;2099.20;;;;;;5044590;28;20358;-92
2022/02/26 00:40:07;;;;;;;;;;;179.80;2099.20;;;;;;5042253;28;20534;-81
2022/02/26 00:42:33;;;;;;;8.35;5.07;;;179.60;2124.80;;;;;;5047737;28;19978;-92
2022/02/26 00:44:59;;;;;;;;;;;179.50;2150.40;;;;;;5046279;28;20071;-80
2022/02/26 00:47:24;;;;;;;10.30;5.10;;;179.60;2150.40;;;;;;5042281;28;19904;-80
2022/02/26 00:49:50;;;;;;;;;;;179.60;2124.80;;;;;;5045745;28;20013;-92
2022/02/26 00:52:17;;;;;;;10.18;5.13;;;179.60;2124.80;;;;;;5043242;28;19905;-90
2022/02/26 00:54:44;;;;;;;10.30;4.22;;;179.40;2150.40;;;;;;5040822;28;20017;-92
2022/02/26 00:57:09;;;;;;;8.90;4.75;;;179.60;2124.80;;;;;;5045182;28;21114;-91
2022/02/26 00:59:35;;;;;;;;;;;179.50;2124.80;;;;;;5042348;28;20013;-90
2022/02/26 01:02:02;;;;;;;10.32;4.60;;;179.50;2124.80;;;;;;5041733;28;19970;-92
2022/02/26 01:04:28;;;;;;;8.05;4.70;;;179.50;2150.40;;;;;;5042278;28;20465;-91
2022/02/26 01:06:54;;;;;;;10.45;4.38;;;179.50;2124.80;;;;;;5042608;28;20021;-92
2022/02/26 01:09:20;;;;;;;;;;;179.50;2124.80;;;;;;5044485;28;20505;-80
2022/02/26 01:11:46;;;;;;;10.25;5.20;;;179.60;2124.80;;;;;;5042347;28;20018;-93
2022/02/26 01:14:12;;;;;;;;;;;179.60;2124.80;;;;;;5045046;28;20052;-93
2022/02/26 01:16:38;;;;;;;11.77;4.75;;;179.60;2124.80;;;;;;5042234;28;19944;-93
2022/02/26 01:19:04;;;;;;;9.52;4.57;;;179.60;2124.80;;;;;;5043590;28;20025;-93
2022/02/26 01:21:30;;;;;;;11.32;5.75;;;179.60;2124.80;;;;;;5042712;28;20028;-78
2022/02/26 01:23:56;;;;;;;;;;;179.50;2150.40;;;;;;5042725;28;20131;-80
2022/02/26 01:26:22;;;;;;;10.88;5.53;;;179.40;2150.40;;;;;;5041833;28;19911;-80
2022/02/26 01:28:48;;;;;;;;;;;179.60;2150.40;;;;;;5040084;28;20565;-93
2022/02/26 01:31:15;;;;;;;8.35;4.57;;;179.60;2150.40;;;;;;5043236;28;20246;-80
2022/02/26 01:33:40;;;;;;;10.05;4.82;;;179.70;2176.00;;;;;;5043334;28;20085;-91
2022/02/26 01:36:06;;;;;;;;;;;179.60;2176.00;;;;;;5041672;28;20128;-84
2022/02/26 01:38:33;;;;;;;11.30;5.45;;;179.70;2150.40;;;;;;5042078;28;19905;-80
2022/02/26 01:40:59;;;;;;;10.02;5.50;;;179.70;2150.40;;;;;;5041504;28;20505;-91
2022/02/26 01:43:25;;;;;;;;;;;179.80;2176.00;;;;;;5043223;28;20026;-92
2022/02/26 01:45:52;;;;;;;9.73;5.45;;;179.70;2150.40;;;;;;5042458;28;20402;-80
2022/02/26 01:48:18;;;;;;;7.65;4.60;;;179.70;2176.00;;;;;;5042856;28;20025;-92
2022/02/26 01:50:44;;;;;;;8.68;4.95;;;179.70;2201.60;;;;;;5040100;28;20033;-88
2022/02/26 01:53:10;;;;;;;;;;;179.70;2252.80;;;;;;5026815;28;20017;-80
2022/02/26 01:55:37;;;;;;;12.38;5.53;;;179.70;2227.20;;;;;;5045207;28;19938;-80
2022/02/26 01:58:04;;;;;;;11.38;5.90;;;179.70;2252.80;;;;;;5041915;28;20497;-92
2022/02/26 02:00:30;;;;;;;11.65;6.13;;;179.70;2252.80;;;;;;5037538;28;20044;-93
2022/02/26 02:02:57;;;;;;;10.07;5.65;;;179.60;2252.80;;;;;;4998057;28;1244389;-92
2022/02/26 02:05:27;;;;;;;10.48;5.20;;;179.60;2252.80;;;;;;5040992;28;20041;-94
2022/02/26 02:07:53;;;;;;;13.80;6.20;;;179.60;2252.80;;;;;;5040830;28;20108;-80
2022/02/26 02:10:22;;;;;;;;;;;179.50;2252.80;;;;;;5048590;28;20033;-82
2022/02/26 02:12:48;;;;;;;10.35;5.32;;;179.50;2252.80;;;;;;5044499;28;19944;-92
2022/02/26 02:15:14;;;;;;;;;;;179.50;2252.80;;;;;;5043139;28;20098;-80
2022/02/26 02:17:43;;;;;;;11.52;5.05;;;179.50;2252.80;;;;;;5042415;28;20321;-92
2022/02/26 02:20:10;;;;;;;7.88;4.97;;;179.40;2252.80;;;;;;5040322;28;20025;-91
2022/02/26 02:22:36;;;;;;;9.60;5.30;;;179.40;2252.80;;;;;;5043865;28;20103;-80
2022/02/26 02:25:05;;;;;;;13.45;5.88;;;179.50;2252.80;;;;;;5043554;28;20047;-81
2022/02/26 02:27:31;;;;;;;10.15;5.07;;;179.40;2252.80;;;;;;5038089;28;20021;-92
2022/02/26 02:29:58;;;;;;;;;;;179.50;2252.80;;;;;;5042544;28;20561;-80
2022/02/26 02:32:23;;;;;;;7.10;3.93;;;179.40;2252.80;;;;;;5041156;28;19939;-92
2022/02/26 02:34:49;;;;;;;;;;;179.50;2252.80;;;;;;5043870;28;20247;-91
2022/02/26 02:37:15;;;;;;;10.63;5.05;;;179.40;2252.80;;;;;;5043910;28;19904;-92
2022/02/26 02:39:43;;;;;;;;;;;179.40;2252.80;;;;;;5042298;28;20033;-93
2022/02/26 02:42:09;;;;;;;10.77;4.88;;;179.30;2252.80;;;;;;5042913;28;19908;-89
2022/02/26 02:44:35;;;;;;;;;;;154.50;2252.80;;;;;;5040830;28;20094;-94
2022/02/26 02:47:00;;;;;;;9.77;5.22;;;154.50;2252.80;;;;;;5042883;28;19905;-79
2022/02/26 02:49:26;;;;;;;;;;;154.50;2252.80;;;;;;5047888;28;20040;-84
2022/02/26 02:51:52;;;;;;;13.93;6.63;;;154.50;2252.80;;;;;;5047599;28;19909;-81
2022/02/26 02:54:18;;;;;;;;;;;154.50;2252.80;;;;;;5046057;28;20382;-79
2022/02/26 02:56:44;;;;;;;13.55;5.97;;;154.50;2252.80;;;;;;5045705;28;19905;-91
2022/02/26 02:59:09;;;;;;;;;;;154.50;2252.80;;;;;;5046475;28;20528;-93
2022/02/26 03:01:35;;;;;;;11.80;6.30;;;154.50;2252.80;;;;;;5044433;28;19905;-79
2022/02/26 03:04:01;;;;;;;;;;;154.40;2252.80;;;;;;5046794;28;20076;-93
2022/02/26 03:06:27;;;;;;;13.15;6.47;;;154.20;2252.80;;;;;;5047201;28;19908;-93
2022/02/26 03:08:53;;;;;;;12.65;6.35;;;154.10;2252.80;;;;;;5042922;28;20037;-91
2022/02/26 03:11:20;;;;;;;;;;;154.10;2252.80;;;;;;5047228;28;20028;-80
2022/02/26 03:13:46;;;;;;;10.80;6.28;;;154.20;2252.80;;;;;;5043982;28;19913;-91
2022/02/26 03:16:13;;;;;;;11.18;6.18;;;154.10;2252.80;;;;;;5045663;28;20033;-80
2022/02/26 03:18:38;;;;;;;10.07;5.60;;;154.10;2252.80;;;;;;5042190;28;20057;-80
2022/02/26 03:21:05;;;;;;;;;;;154.20;2252.80;;;;;;5044203;28;20033;-92
2022/02/26 03:23:30;;;;;;;13.60;6.10;;;154.10;2252.80;;;;;;5046323;28;19905;-80
2022/02/26 03:25:56;;;;;;;;;;;154.00;2252.80;;;;;;5045599;28;20021;-93
2022/02/26 03:28:22;;;;;;;15.35;6.97;;;154.00;2252.80;;;;;;5044976;28;19993;-81
2022/02/26 03:30:49;;;;;;;;;;;154.00;2252.80;;;;;;5046235;28;20666;-79
2022/02/26 03:33:15;;;;;;;11.85;5.45;;;154.00;2252.80;;;;;;5044336;28;20421;-80
2022/02/26 03:35:42;;;;;;;12.45;6.78;;;154.00;2252.80;;;;;;5043951;28;20021;-80
2022/02/26 03:38:08;;;;;;;11.88;6.65;;;154.10;2252.80;;;;;;5043798;28;20029;-79
2022/02/26 03:40:34;;;;;;;13.05;7.18;;;154.20;2252.80;;;;;;5045357;28;20021;-78
2022/02/26 03:43:01;;;;;;;10.05;5.88;;;154.10;2252.80;;;;;;5045677;28;20082;-91
2022/02/26 03:45:27;;;;;;;12.13;5.55;;;154.20;2252.80;;;;;;5042775;28;20041;-86
2022/02/26 03:47:52;;;;;;;;;;;154.30;2252.80;;;;;;5043899;28;20159;-79
2022/02/26 03:50:18;;;;;;;9.77;5.85;;;154.20;2252.80;;;;;;5045217;28;19911;-79
2022/02/26 03:52:43;;;;;;;;;;;154.20;2252.80;;;;;;5045568;28;20417;-79
2022/02/26 03:55:10;;;;;;;11.10;6.13;;;154.20;2252.80;;;;;;5042489;28;19958;-78
2022/02/26 03:57:36;;;;;;;10.35;5.88;;;154.10;2252.80;;;;;;5042709;28;20371;-83
2022/02/26 04:00:03;;;;;;;;;;;154.10;2252.80;;;;;;5046322;28;20028;-80
2022/02/26 04:02:29;;;;;;;;;;;154.00;2252.80;;;;;;5045533;28;19923;-80
2022/02/26 04:04:55;;;;;;;16.70;8.18;;;154.00;2252.80;;;;;;5046103;28;19913;-80
2022/02/26 04:07:20;;;;;;;13.27;7.82;;;154.00;2252.80;;;;;;5047172;28;20025;-80
2022/02/26 04:09:46;;;;;;;;;;;154.00;2252.80;;;;;;5046009;28;20029;-92
2022/02/26 04:12:12;;;;;;;11.73;7.90;;;154.10;2252.80;;;;;;5044724;28;19917;-84
2022/02/26 04:14:37;;;;;;;;;;;154.10;2252.80;;;;;;5043146;28;20025;-79
2022/02/26 04:17:03;;;;;;;13.35;8.32;;;154.10;2252.80;;;;;;5043329;28;20259;-80
2022/02/26 04:19:29;;;;;;;13.93;8.38;;;154.00;2252.80;;;;;;5044429;28;20485;-80
2022/02/26 04:21:55;;;;;;;;;;;154.00;2252.80;;;;;;5047468;28;20025;-92
2022/02/26 04:24:21;;;;;;;13.18;7.90;;;154.00;2252.80;;;;;;5048606;28;20309;-92
2022/02/26 04:26:47;;;;;;;15.77;8.05;;;154.00;2252.80;;;;;;5045132;28;20025;-93
2022/02/26 04:29:13;;;;;;;;;;;154.10;2252.80;;;;;;5045527;28;20028;-93
2022/02/26 04:31:40;;;;;;;13.02;7.55;;;154.00;2252.80;;;;;;5041965;28;19905;-80
2022/02/26 04:34:06;;;;;;;13.23;7.78;;;154.00;2252.80;;;;;;5044238;28;20075;-93
2022/02/26 04:36:32;;;;;;;;;;;154.10;2252.80;;;;;;5041145;28;20116;-89
2022/02/26 04:38:57;;;;;;;11.73;6.68;;;154.10;2252.80;;;;;;5040134;28;20450;-80
2022/02/26 04:41:23;;;;;;;;;;;154.10;2252.80;;;;;;5044036;28;20023;-93
2022/02/26 04:43:49;;;;;;;11.80;7.32;;;154.10;2252.80;;;;;;5044353;28;20287;-93
2022/02/26 04:46:15;;;;;;;;;;;154.10;2252.80;;;;;;5044982;28;20025;-93
2022/02/26 04:48:41;;;;;;;11.98;7.05;;;154.20;2252.80;;;;;;5045788;28;19905;-80
2022/02/26 04:51:08;;;;;;;10.80;6.75;;;154.10;2252.80;;;;;;5042989;28;20065;-81
2022/02/26 04:53:36;;;;;;;12.20;6.57;;;154.20;2252.80;;;;;;5042297;28;20407;-92
2022/02/26 04:56:03;;;;;;;12.48;7.63;;;154.10;2252.80;;;;;;5043915;28;20080;-93
2022/02/26 04:58:28;;;;;;;13.23;7.43;;;154.20;2252.80;;;;;;5040645;28;20033;-87
2022/02/26 05:00:54;;;;;;;;;;;154.30;2252.80;;;;;;5046653;28;20031;-91
2022/02/26 05:03:20;;;;;;;16.25;6.88;;;154.20;2252.80;;;;;;5042066;28;19916;-79
2022/02/26 05:05:45;;;;;;;;;;;154.10;2252.80;;;;;;5041295;28;20108;-92
2022/02/26 05:08:11;;;;;;;12.48;6.78;;;154.10;2252.80;;;;;;5041864;28;19912;-79
2022/02/26 05:10:37;;;;;;;;;;;154.20;2252.80;;;;;;5041757;28;20601;-92
2022/02/26 05:13:03;;;;;;;9.40;5.93;;;154.20;2252.80;;;;;;5043141;28;19992;-80
2022/02/26 05:15:29;;;;;;;12.55;7.20;;;154.10;2252.80;;;;;;5043177;28;20033;-82
2022/02/26 05:17:56;;;;;;;12.40;7.22;;;154.10;2252.80;;;;;;5042935;28;20586;-92
2022/02/26 05:20:22;;;;;;;;;;;154.20;2252.80;;;;;;5044400;28;20128;-91
2022/02/26 05:22:48;;;;;;;10.55;6.65;;;154.40;2252.80;;;;;;5045288;28;20279;-92
2022/02/26 05:25:13;;;;;;;;;;;154.30;2252.80;;;;;;5044734;28;20040;-79
2022/02/26 05:27:40;;;;;;;13.45;7.28;;;154.50;2252.80;;;;;;5044749;28;19937;-93
2022/02/26 05:30:08;;;;;;;10.27;6.32;;;154.30;2252.80;;;;;;5044603;28;20040;-92
2022/02/26 05:32:34;;;;;;;12.43;7.57;;;154.30;2252.80;;;;;;5041520;28;20018;-87
2022/02/26 05:34:59;;;;;;;;;;;154.20;2252.80;;;;;;5046447;28;20196;-93
2022/02/26 05:37:25;;;;;;;13.10;6.68;;;154.30;2252.80;;;;;;5041068;28;19991;-79
2022/02/26 05:39:51;;;;;;;;;;;154.30;2252.80;;;;;;5040975;28;20024;-93
2022/02/26 05:42:17;;;;;;;13.45;6.35;;;154.40;2252.80;;;;;;5043053;28;20381;-92
2022/02/26 05:44:43;;;;;;;;;;;154.50;2252.80;;;;;;5042327;28;20037;-80
2022/02/26 05:47:09;;;;;;;13.77;6.68;;;154.50;2252.80;;;;;;5044615;28;19905;-93
2022/02/26 05:49:35;;;;;;;;;;;154.40;2252.80;;;;;;5043372;28;20129;-79
2022/02/26 05:52:01;;;;;;;14.48;6.95;;;154.50;2252.80;;;;;;5040894;28;19904;-81
2022/02/26 05:54:26;;;;;;;;;;;154.40;2252.80;;;;;;5041004;28;20049;-85
2022/02/26 05:56:52;;;;;;;14.75;6.18;;;154.40;2252.80;;;;;;5039657;28;19947;-79
2022/02/26 05:59:18;;;;;;;;;;;154.50;2252.80;;;;;;5044227;28;20490;-93
2022/02/26 06:01:44;;;;;;;9.82;5.47;;;154.50;2252.80;;;;;;5041671;28;19906;-91
2022/02/26 06:04:09;;;;;;;;;;;154.50;2252.80;;;;;;5046298;28;20040;-80
2022/02/26 06:06:35;;;;;;;11.85;6.50;;;154.50;2252.80;;;;;;5040592;28;19904;-79
2022/02/26 06:09:01;;;;;;;;;;;154.50;2252.80;;;;;;5048150;28;20025;-93
2022/02/26 06:11:27;;;;;;;10.48;6.32;;;179.20;2252.80;;;;;;5042514;28;19909;-81
2022/02/26 06:13:53;;;;;;;;;;;179.40;2252.80;;;;;;5043271;28;20041;-80
2022/02/26 06:16:19;;;;;;;11.40;6.80;;;179.40;2252.80;;;;;;5041226;28;19905;-92
2022/02/26 06:18:44;;;;;;;;;;;179.30;2252.80;;;;;;5042438;28;20094;-93
2022/02/26 06:21:10;;;;;;;11.60;6.13;;;179.40;2252.80;;;;;;5044813;28;19956;-80
2022/02/26 06:23:36;;;;;;;;;;;179.40;2252.80;;;;;;5044502;28;20059;-80
2022/02/26 06:26:01;;;;;;;10.00;6.60;;;179.40;2252.80;;;;;;5045159;28;19924;-87
2022/02/26 06:28:27;;;;;;;;;;;179.40;2252.80;;;;;;5045167;28;20032;-79
2022/02/26 06:30:53;;;;;;;14.07;8.63;;;179.40;2252.80;;;;;;5046061;28;19952;-81
2022/02/26 06:33:18;;;;;;;;;;;179.40;2252.80;;;;;;5041928;28;20025;-90
2022/02/26 06:35:44;;;;;;;15.95;7.15;;;179.50;2252.80;;;;;;5046699;28;19912;-79
2022/02/26 06:38:11;;;;;;;11.93;6.65;;;179.50;2252.80;;;;;;5046815;28;20068;-92
2022/02/26 06:40:37;;;;;;;12.63;6.15;;;179.60;2252.80;;;;;;5042762;28;20021;-91
2022/02/26 06:43:03;;;;;;;15.07;6.43;;;179.50;2252.80;;;;;;5048557;28;20024;-79
2022/02/26 06:45:29;;;;;;;;;;;179.60;2252.80;;;;;;5045727;28;20021;-79
2022/02/26 06:47:54;;;;;;;21.60;6.15;;;179.40;2252.80;;;;;;5043893;28;19905;-80
2022/02/26 06:50:20;;;;;;;;;;;179.40;2252.80;;;;;;5044379;28;20422;-87
2022/02/26 06:52:46;;;;;;;14.30;6.93;;;179.40;2252.80;;;;;;5046293;28;19905;-78
2022/02/26 06:55:11;;;;;;;;;;;179.60;2252.80;;;;;;5046681;28;20044;-80
2022/02/26 06:57:37;;;;;;;14.32;5.93;;;179.70;2252.80;;;;;;5042653;28;19905;-89
2022/02/26 07:00:05;;;;;;;;;;;179.70;2252.80;;;;;;5046635;28;20013;-79
2022/02/26 07:02:32;;;;;;;11.88;6.57;;;179.70;2252.80;;;;;;5042090;28;19917;-89
2022/02/26 07:04:57;;;;;;;12.23;6.15;;;179.70;2252.80;;;;;;5043686;28;20137;-89
2022/02/26 07:07:23;;;;;;;;;;;179.70;2252.80;;;;;;5048435;28;20135;-79
2022/02/26 07:09:49;;;;;;;12.82;6.68;;;179.80;2252.80;;;;;;5044798;28;19905;-79
2022/02/26 07:12:19;;;;;;;13.10;6.63;;;179.80;2252.80;;;;;;5043623;28;20107;-79
2022/02/26 07:14:45;;;;;;;14.35;7.22;;;180.00;2252.80;;;;;;5044086;28;20080;-89
2022/02/26 07:17:11;;;;;;;;;;;179.90;2252.80;;;;;;5054032;28;20025;-78
2022/02/26 07:19:37;;;;;;;14.48;7.22;;;179.90;2252.80;;;;;;5046406;28;19928;-78
2022/02/26 07:22:03;;;;;;;;;;;179.90;2252.80;;;;;;5046296;28;20079;-86
2022/02/26 07:24:29;;;;;;;13.82;6.38;;;180.10;2252.80;;;;;;5050181;28;19913;-87
2022/02/26 07:26:54;;;;;;;;;;;180.10;2252.80;;;;;;5055727;28;20108;-88
2022/02/26 07:29:20;;;;;;;11.80;5.80;;;204.80;2252.80;;;;;;5055563;28;19995;-88
2022/02/26 07:31:46;;;;;;;;;;;204.80;2252.80;;;;;;5055678;28;20021;-84
2022/02/26 07:34:11;;;;;;;10.95;5.32;;;204.90;2252.80;;;;;;5054731;28;20354;-87
2022/02/26 07:36:37;;;;;;;;;;;180.10;2252.80;;;;;;5056673;28;20020;-77
2022/02/26 07:39:03;;;;;;;11.98;5.45;;;205.00;2252.80;;;;;;5054620;28;19934;-79
2022/02/26 07:41:29;;;;;;;10.95;5.22;;;204.90;2252.80;;;;;;5048826;28;20510;-78
2022/02/26 07:43:55;;;;;;;;;;;204.90;2252.80;;;;;;5035358;28;20025;-91
2022/02/26 07:46:21;;;;;;;10.52;5.32;;;205.00;2252.80;;;;;;5034610;28;19916;-87
2022/02/26 07:48:49;;;;;;;9.80;6.13;;;204.90;2252.80;;;;;;5034375;28;20034;-79
2022/02/26 07:51:14;;;;;;;12.38;5.82;;;205.00;2252.80;;;;;;5036297;28;20029;-86
2022/02/26 07:53:40;;;;;;;;;;;205.10;2252.80;;;;;;5035653;28;20026;-78
2022/02/26 07:56:06;;;;;;;10.20;5.90;;;205.20;2252.80;;;;;;5036060;28;19909;-79
2022/02/26 07:58:32;;;;;;;;;;;205.20;2252.80;;;;;;5036383;28;20037;-79
2022/02/26 08:00:58;;;;;;;13.80;6.47;;;205.20;2227.20;;;;;;5035360;28;19913;-96
2022/02/26 08:03:23;;;;;;;;;;;205.30;2252.80;;;;;;5034498;28;20046;-84
2022/02/26 08:05:49;;;;;;;15.63;7.00;;;205.40;2252.80;;;;;;5033824;28;19913;-78
2022/02/26 08:08:14;;;;;;;;;;;205.40;2252.80;;;;;;5036141;28;20406;-86
2022/02/26 08:10:40;;;;;;;14.02;6.80;;;205.30;2227.20;;;;;;5035493;28;20263;-78
2022/02/26 08:13:06;;;;;;;;;;;205.40;2201.60;;;;;;5036328;28;20018;-78
2022/02/26 08:15:32;;;;;;;12.20;6.90;;;205.40;2201.60;;;;;;5034142;28;20388;-88
2022/02/26 08:17:58;;;;;;;13.13;6.10;;;205.30;2227.20;;;;;;5034417;28;20036;-78
2022/02/26 08:20:24;;;;;;;;;;;205.40;2252.80;;;;;;5034410;28;20034;-88
2022/02/26 08:22:53;;;;;;;10.68;6.18;;;205.60;2227.20;;;;;;5034035;28;19911;-87
2022/02/26 08:25:19;;;;;;;14.45;8.20;;;205.20;2227.20;;;;;;5035251;28;20034;-78
2022/02/26 08:27:45;;;;;;;;;;;205.20;2252.80;;;;;;5034818;28;20364;-85
2022/02/26 08:30:14;;;;;;;18.38;7.45;;;205.20;2252.80;;;;;;5034169;28;19905;-78
2022/02/26 08:32:42;;;;;;;12.57;6.43;;;205.30;2227.20;;;;;;5035096;28;20014;-80
2022/02/26 08:35:08;;;;;;;14.95;8.15;;;205.10;2252.80;;;;;;5033711;28;20037;-87
2022/02/26 08:37:38;;;;;;;14.25;6.82;;;205.10;2252.80;;;;;;5033760;28;20021;-78
2022/02/26 08:40:07;;;;;;;12.75;7.13;;;205.10;2252.80;;;;;;5033701;28;20026;-88
2022/02/26 08:42:34;;;;;;;13.73;6.35;;;205.30;2252.80;;;;;;5034727;28;20022;-80
2022/02/26 08:45:02;;;;;;;17.65;7.15;;;205.20;2252.80;;;;;;5033078;28;20041;-81
2022/02/26 08:47:29;;;;;;;18.73;6.80;;;205.20;2252.80;;;;;;5035257;28;20009;-80
2022/02/26 08:49:56;;;;;;;12.52;7.13;;;205.30;2252.80;;;;;;5033918;28;20074;-84
2022/02/26 08:52:22;;;;;;;11.27;6.93;;;205.20;2252.80;;;;;;5034138;28;20105;-88
2022/02/26 08:54:47;;;;;;;;;;;205.30;2252.80;;;;;;5034481;28;20057;-80
2022/02/26 08:57:13;;;;;;;21.00;10.40;;;205.30;2252.80;;;;;;5034656;28;19912;-78
2022/02/26 08:59:39;;;;;;;;;;;205.40;2252.80;;;;;;5034289;28;20021;-80
2022/02/26 09:02:05;;;;;;;19.73;8.48;;;205.50;2252.80;;;;;;5033109;28;19905;-80
2022/02/26 09:04:30;;;;;;;;;;;205.50;2252.80;;;;;;5033629;28;20037;-77
2022/02/26 09:06:56;;;;;;;12.73;6.30;;;205.60;2227.20;;;;;;5033722;28;20331;-79
2022/02/26 09:09:22;;;;;;;;;;;205.60;2227.20;;;;;;5033909;28;20029;-83
2022/02/26 09:11:48;;;;;;;10.60;6.25;;;205.70;2252.80;;;;;;5034743;28;19909;-79
2022/02/26 09:14:14;;;;;;;11.10;6.90;;;205.70;2227.20;;;;;;5035501;28;20036;-77
2022/02/26 09:16:40;;;;;;;;;;;205.60;2252.80;;;;;;5033529;28;20022;-78
2022/02/26 09:19:05;;;;;;;12.85;6.75;;;205.60;2252.80;;;;;;5033141;28;19928;-79
2022/02/26 09:21:31;;;;;;;;;;;205.70;2252.80;;;;;;5034739;28;20075;-80
2022/02/26 09:23:57;;;;;;;9.15;4.85;;;230.40;2252.80;;;;;;5033339;28;19913;-78
2022/02/26 09:26:22;;;;;;;;;;;205.70;2252.80;;;;;;5033738;28;20037;-78
2022/02/26 09:28:48;;;;;;;7.80;4.38;;;230.50;2252.80;;;;;;5032999;28;19911;-83
2022/02/26 09:31:14;;;;;;;;;;;230.40;2252.80;;;;;;5033495;28;20025;-85
2022/02/26 09:33:41;;;;;;;10.85;5.32;;;230.40;2252.80;;;;;;5033094;28;19911;-80
2022/02/26 09:36:08;;;;;;;9.65;6.13;;;230.50;2252.80;;;;;;5037057;28;20022;-78
2022/02/26 09:38:35;;;;;;;13.57;6.47;;;230.50;2252.80;;;;;;5041985;28;20099;-78
2022/02/26 09:41:03;;;;;;;12.73;6.85;;;230.60;2252.80;;;;;;5046289;28;20388;-93
2022/02/26 09:43:31;;;;;;;8.63;4.88;;;230.80;2252.80;;;;;;5041262;28;20029;-91
2022/02/26 09:45:57;;;;;;;15.07;5.60;;;230.60;2252.80;;;;;;5043455;28;20494;-87
2022/02/26 09:48:23;;;;;;;7.03;4.85;;;230.70;2252.80;;;;;;5041960;28;20072;-88
2022/02/26 09:50:50;;;;;;;10.63;6.43;;;230.80;2252.80;;;;;;5036933;28;20060;-78
2022/02/26 09:53:17;;;;;;;9.80;5.88;;;230.90;2252.80;;;;;;5032425;28;20171;-79
2022/02/26 09:55:43;;;;;;;11.10;5.63;;;230.80;2252.80;;;;;;5032716;28;20025;-78
2022/02/26 09:58:10;;;;;;;9.23;6.28;;;230.70;2252.80;;;;;;5034113;28;20025;-79
2022/02/26 10:00:36;;;;;;;8.45;5.55;;;230.80;2252.80;;;;;;5032611;28;20041;-91
2022/02/26 10:03:02;;;;;;;;;;;230.90;2252.80;;;;;;5034274;28;20499;-79
2022/02/26 10:05:28;;;;;;;11.90;5.22;;;230.90;2252.80;;;;;;5032444;28;20377;-79
2022/02/26 10:07:54;;;;;;;11.45;5.05;;;231.00;2252.80;;;;;;5034378;28;20018;-84
2022/02/26 10:10:21;;;;;;;;;;;230.90;2227.20;;;;;;5033047;28;20033;-79
2022/02/26 10:12:51;;;;;;;;;;;230.80;2227.20;;;;;;5031742;28;19947;-79
2022/02/26 10:15:40;;;;;;;7.63;4.22;;;230.80;2252.80;;;;;;5033845;28;19910;-79
2022/02/26 10:18:11;;;;;;;11.07;5.00;;;230.80;2252.80;;;;;;5033978;28;20556;-85
2022/02/26 10:21:06;;;;;;;7.85;4.85;;;230.70;2227.20;;;;;;5032431;28;20083;-79
2022/02/26 10:23:32;;;;;;;8.02;4.03;;;230.60;2252.80;;;;;;4956671;28;20039;-80
2022/02/26 10:26:08;;;;;;;;;;;230.70;2252.80;;;;;;4956960;28;20039;-79
2022/02/26 10:28:40;;;;;;;7.75;4.75;;;230.70;2227.20;;;;;;4973119;28;19937;-88
2022/02/26 10:31:08;;;;;;;6.80;4.40;;;230.70;2227.20;;;;;;4956650;28;20030;-79
2022/02/26 10:33:34;;;;;;;10.75;4.75;;;230.80;2227.20;;;;;;4978252;28;20074;-92
2022/02/26 10:36:06;;;;;;;13.13;5.55;;;230.80;2227.20;;;;;;4978390;28;20053;-79
2022/02/26 10:38:34;;;;;;;8.07;5.20;;;230.60;2252.80;;;;;;4980162;28;20027;-79
2022/02/26 10:41:06;;;;;;;9.90;4.93;;;230.70;2252.80;;;;;;4977381;28;20046;-80
2022/02/26 10:43:44;;;;;;;12.23;5.72;;;230.80;2227.20;;;;;;4951566;28;20035;-79
2022/02/26 10:46:16;;;;;;;10.35;5.82;;;230.90;2252.80;;;;;;4937089;28;20054;-86
2022/02/26 10:48:42;;;;;;;9.27;5.15;;;230.90;2227.20;;;;;;4953514;29;20525;-83
2022/02/26 10:51:19;;;;;;;8.48;5.10;;;230.90;2227.20;;;;;;4953038;29;20055;-89
2022/02/26 10:53:47;;;;;;;10.38;5.97;;;230.90;2227.20;;;;;;4952856;29;20040;-92
2022/02/26 10:56:14;;;;;;;12.38;5.97;;;230.90;2227.20;;;;;;4970704;28;20065;-84
2022/02/26 10:58:42;;;;;;;11.32;6.00;;;230.90;2201.60;;;;;;4963996;28;20109;-88
2022/02/26 11:01:10;;;;;;;15.45;7.43;;;230.80;2252.80;;;;;;5039894;28;20052;-88
2022/02/26 11:03:37;;;;;;;14.25;6.47;;;231.00;2252.80;;;;;;5039364;28;20046;-94
2022/02/26 11:06:05;;;;;;;52.58;27.88;;;231.00;2252.80;;;;;;5048995;28;20045;-88
2022/02/26 11:08:31;;;;;;;14.70;8.07;;;231.00;2252.80;;;;;;5053505;28;20067;-78
2022/02/26 11:10:59;;;;;;;14.70;8.85;;;231.00;2201.60;;;;;;5048794;28;20053;-88
2022/02/26 11:13:25;;;;;;;13.15;8.13;;;231.00;2252.80;;;;;;5047233;28;20036;-88
2022/02/26 11:16:12;;;;;;;11.63;6.53;;;231.10;2252.80;;;;;;5039145;28;20368;-79
2022/02/26 11:18:44;;;;;;;16.00;8.05;;;231.10;2227.20;;;;;;5041957;28;20017;-79
2022/02/26 11:21:12;;;;;;;10.82;6.20;;;231.10;2252.80;;;;;;5041577;28;20025;-78
2022/02/26 11:23:38;;;;;;;19.98;9.27;;;231.10;2201.60;;;;;;5035167;28;20029;-79
2022/02/26 11:26:07;;;;;;;;;;;231.20;2227.20;;;;;;5035460;28;20040;-79
2022/02/26 11:28:37;;;;;;;14.10;7.07;;;231.10;2227.20;;;;;;5034881;28;20388;-79
2022/02/26 11:31:08;;;;;;;8.50;5.80;;;231.10;2227.20;;;;;;5036210;28;20063;-81
2022/02/26 11:33:36;;;;;;;15.40;5.95;;;231.10;2176.00;;;;;;5034736;28;20602;-79
2022/02/26 11:36:04;;;;;;;10.73;5.13;;;231.10;2150.40;;;;;;5034062;28;20111;-84
2022/02/26 11:38:34;;;;;;;11.73;5.13;;;231.10;2150.40;;;;;;5036383;28;20097;-87
2022/02/26 11:41:17;;;;;;;9.50;6.05;;;231.10;2124.80;;;;;;5034730;28;20064;-91
2022/02/26 11:43:47;;;;;;;11.02;6.22;;;231.10;2124.80;;;;;;5046086;28;20576;-79
2022/02/26 11:46:22;;;;;;;11.10;5.78;;;231.00;2150.40;;;;;;5045767;28;20033;-80
2022/02/26 11:48:48;;;;;;;12.45;5.45;;;231.10;2176.00;;;;;;5045815;28;20075;-90
2022/02/26 11:51:15;;;;;;;8.50;5.15;;;231.10;2150.40;;;;;;5042841;28;20116;-90
2022/02/26 11:53:46;;;;;;;11.10;6.07;;;231.00;2176.00;;;;;;5045187;28;20021;-90
2022/02/26 11:56:12;;;;;;;9.20;4.95;;;231.00;2201.60;;;;;;5044877;28;20018;-79
2022/02/26 11:58:39;;;;;;;10.98;5.07;;;231.10;2227.20;;;;;;5043354;28;20041;-79
2022/02/26 12:01:07;;;;;;;13.07;5.97;;;231.00;2252.80;;;;;;5016026;28;20053;-79
2022/02/26 12:03:33;;;;;;;11.70;6.00;;;231.10;2252.80;;;;;;5031072;28;20052;-79
2022/02/26 12:06:08;;;;;;;11.20;6.45;;;231.10;2252.80;;;;;;5015884;28;20029;-89
2022/02/26 12:08:48;;;;;;;13.15;6.22;;;231.10;2252.80;;;;;;5015865;28;20022;-79
2022/02/26 12:11:43;;;;;;;10.90;6.30;;;231.20;2252.80;;;;;;5015585;28;20109;-79
2022/02/26 12:14:20;;;;;;;11.60;5.63;;;231.20;2252.80;;;;;;5029056;28;20053;-86
2022/02/26 12:17:01;;;;;;;8.80;5.45;;;231.20;2252.80;;;;;;5031085;28;20034;-93
2022/02/26 12:19:28;;;;;;;8.52;5.22;;;231.20;2252.80;;;;;;5014779;28;20050;-92
2022/02/26 12:22:03;;;;;;;10.50;4.60;;;231.20;2252.80;;;;;;5030547;28;20113;-79
2022/02/26 12:24:46;;;;;;;8.57;4.20;;;231.20;2252.80;;;;;;5030628;28;20040;-88
2022/02/26 12:27:12;;;;;;;9.73;4.43;;;231.20;2227.20;;;;;;5024811;28;20049;-89
2022/02/26 12:29:40;;;;;;;7.80;3.92;;;231.20;2227.20;;;;;;5015255;28;20026;-89
2022/02/26 12:32:06;;;;;;;10.88;5.38;;;231.20;2227.20;;;;;;5030846;28;20037;-79
2022/02/26 12:34:47;;;;;;;10.27;5.68;;;231.10;2227.20;;;;;;5030796;28;20484;-80